Pays
Station

 

Conditions  météo  pour  Joensuu  -  Finlande    Finlande

  
1 °C
    
 
 

METAR pour Joensuu :

EFJO 230620Z AUTO 16013KT 130V200 CAVOK 01/M08 Q1013

 

Voici le bulletin pour Joensuu - Finlande.
 
Le bulletin a été fait il y a 11 minutes, à 06:20 UTC .
Le vent soufflait à la vitesse de 6.7 mètres par seconde de Sud/Sud-est (160°), variant entre Sud-est (130°) et Sud/Sud-ouest (200°).
 
La température était de 1 °C, avec un point de rosée à -8 °C.
La température ressentie était de -5 °C.
 
La pression atmosphérique était de 1013 hPa.
L'humidité relative était de 50.9%.
 
Il y avait pas de nuages en-dessous de 1500 mètres et pas de cumulonimbus.
 
La visibilité globale était de supérieure à 10 kilomètres.
 

 
 
 

Pays :   A   B   C   D   E   F   G   H   I   J   K   L   M   N   O   P   Q   R   S   T   U   V   W   Y   Z

 

Partenaires :  Info Météo avec Met'info
Météo Marine avec MeteoMarine.net
Infos Site  |  Infos Légales  |  Crédits  |  Confidentialité
Contactez-nous  |  Ajouter aux favoris
© 2013-2019 METAR - Tous droits réservés